sensor_id;sensor_type;location;lat;lon;timestamp;pressure;altitude;pressure_sealevel;temperature;humidity
58385;BME280;44185;47.844;8.966;2023-02-13T00:00:19;97929.16;;;1.02;100.00
58385;BME280;44185;47.844;8.966;2023-02-13T00:02:45;97924.06;;;0.96;100.00
58385;BME280;44185;47.844;8.966;2023-02-13T00:05:11;97927.50;;;0.98;100.00
58385;BME280;44185;47.844;8.966;2023-02-13T00:07:36;97923.13;;;0.98;100.00
58385;BME280;44185;47.844;8.966;2023-02-13T00:10:02;97925.75;;;0.98;100.00
58385;BME280;44185;47.844;8.966;2023-02-13T00:12:29;97924.81;;;1.01;100.00
58385;BME280;44185;47.844;8.966;2023-02-13T00:14:54;97924.91;;;0.96;100.00
58385;BME280;44185;47.844;8.966;2023-02-13T00:17:20;97921.50;;;0.94;100.00
58385;BME280;44185;47.844;8.966;2023-02-13T00:19:45;97925.91;;;0.91;100.00
58385;BME280;44185;47.844;8.966;2023-02-13T00:22:11;97927.66;;;0.90;100.00
58385;BME280;44185;47.844;8.966;2023-02-13T00:24:36;97924.16;;;0.91;100.00
58385;BME280;44185;47.844;8.966;2023-02-13T00:27:01;97927.59;;;0.93;100.00
58385;BME280;44185;47.844;8.966;2023-02-13T00:29:29;97931.91;;;0.94;100.00
58385;BME280;44185;47.844;8.966;2023-02-13T00:31:54;97931.09;;;0.91;100.00
58385;BME280;44185;47.844;8.966;2023-02-13T00:34:20;97927.59;;;0.93;100.00
58385;BME280;44185;47.844;8.966;2023-02-13T00:36:45;97925.63;;;1.05;100.00
58385;BME280;44185;47.844;8.966;2023-02-13T00:39:11;97934.41;;;1.01;100.00
58385;BME280;44185;47.844;8.966;2023-02-13T00:41:37;97925.78;;;0.97;100.00
58385;BME280;44185;47.844;8.966;2023-02-13T00:44:02;97935.44;;;0.92;100.00
58385;BME280;44185;47.844;8.966;2023-02-13T00:46:29;97927.66;;;0.90;100.00
58385;BME280;44185;47.844;8.966;2023-02-13T00:48:55;97927.66;;;0.90;100.00
58385;BME280;44185;47.844;8.966;2023-02-13T00:51:20;97930.19;;;0.93;100.00
58385;BME280;44185;47.844;8.966;2023-02-13T00:53:45;97935.34;;;0.98;100.00
58385;BME280;44185;47.844;8.966;2023-02-13T00:56:11;97940.56;;;0.98;100.00
58385;BME280;44185;47.844;8.966;2023-02-13T00:58:37;97937.03;;;1.01;100.00
58385;BME280;44185;47.844;8.966;2023-02-13T01:01:02;97936.00;;;1.06;100.00
58385;BME280;44185;47.844;8.966;2023-02-13T01:03:29;97939.44;;;1.10;100.00
58385;BME280;44185;47.844;8.966;2023-02-13T01:05:55;97944.59;;;1.11;100.00
58385;BME280;44185;47.844;8.966;2023-02-13T01:08:21;97950.75;;;1.09;100.00
58385;BME280;44185;47.844;8.966;2023-02-13T01:10:47;97944.59;;;1.11;100.00
58385;BME280;44185;47.844;8.966;2023-02-13T01:13:13;97944.50;;;1.18;100.00
58385;BME280;44185;47.844;8.966;2023-02-13T01:15:40;97945.31;;;1.20;100.00
58385;BME280;44185;47.844;8.966;2023-02-13T01:18:05;97952.25;;;1.21;100.00
58385;BME280;44185;47.844;8.966;2023-02-13T01:20:32;97954.00;;;1.22;100.00
58385;BME280;44185;47.844;8.966;2023-02-13T01:22:58;97955.06;;;1.10;100.00
58385;BME280;44185;47.844;8.966;2023-02-13T01:25:23;97949.88;;;1.10;100.00
58385;BME280;44185;47.844;8.966;2023-02-13T01:27:49;97949.81;;;1.11;100.00
58385;BME280;44185;47.844;8.966;2023-02-13T01:30:15;97949.88;;;1.10;100.00
58385;BME280;44185;47.844;8.966;2023-02-13T01:32:42;97946.44;;;1.08;100.00
58385;BME280;44185;47.844;8.966;2023-02-13T01:35:09;97951.66;;;1.06;100.00
58385;BME280;44185;47.844;8.966;2023-02-13T01:37:36;97945.41;;;1.15;100.00
58385;BME280;44185;47.844;8.966;2023-02-13T01:40:02;97948.00;;;1.17;100.00
58385;BME280;44185;47.844;8.966;2023-02-13T01:42:30;97949.81;;;1.11;100.00
58385;BME280;44185;47.844;8.966;2023-02-13T01:44:56;97945.50;;;1.10;100.00
58385;BME280;44185;47.844;8.966;2023-02-13T01:47:25;97954.94;;;1.18;100.00
58385;BME280;44185;47.844;8.966;2023-02-13T01:49:58;97951.44;;;1.17;100.00
58385;BME280;44185;47.844;8.966;2023-02-13T01:52:26;97948.13;;;1.09;100.00
58385;BME280;44185;47.844;8.966;2023-02-13T01:54:53;97952.44;;;1.11;100.00
58385;BME280;44185;47.844;8.966;2023-02-13T01:57:20;97948.06;;;1.14;100.00
58385;BME280;44185;47.844;8.966;2023-02-13T01:59:50;97955.03;;;1.11;100.00
58385;BME280;44185;47.844;8.966;2023-02-13T02:02:18;97955.94;;;1.10;100.00
58385;BME280;44185;47.844;8.966;2023-02-13T02:04:46;97956.00;;;1.07;100.00
58385;BME280;44185;47.844;8.966;2023-02-13T02:07:14;97963.88;;;1.06;100.00
58385;BME280;44185;47.844;8.966;2023-02-13T02:09:42;97959.44;;;1.09;100.00
58385;BME280;44185;47.844;8.966;2023-02-13T02:12:17;97963.75;;;1.10;100.00
58385;BME280;44185;47.844;8.966;2023-02-13T02:14:45;97966.47;;;1.06;100.00
58385;BME280;44185;47.844;8.966;2023-02-13T02:17:11;97972.59;;;1.03;100.00
58385;BME280;44185;47.844;8.966;2023-02-13T02:19:39;97973.44;;;1.05;100.00
58385;BME280;44185;47.844;8.966;2023-02-13T02:31:26;97975.25;;;1.00;100.00
58385;BME280;44185;47.844;8.966;2023-02-13T02:34:05;97964.84;;;1.00;100.00
58385;BME280;44185;47.844;8.966;2023-02-13T02:36:41;97968.28;;;1.02;100.00
58385;BME280;44185;47.844;8.966;2023-02-13T02:39:13;97968.28;;;1.02;100.00
58385;BME280;44185;47.844;8.966;2023-02-13T02:41:55;97970.88;;;1.02;100.00
58385;BME280;44185;47.844;8.966;2023-02-13T02:44:38;97968.31;;;1.01;100.00
58385;BME280;44185;47.844;8.966;2023-02-13T02:47:17;97970.94;;;0.99;100.00
58385;BME280;44185;47.844;8.966;2023-02-13T02:49:51;97970.09;;;0.97;100.00
58385;BME280;44185;47.844;8.966;2023-02-13T02:52:23;97969.22;;;0.98;100.00
58385;BME280;44185;47.844;8.966;2023-02-13T02:54:57;97971.75;;;1.01;100.00
58385;BME280;44185;47.844;8.966;2023-02-13T02:57:29;97971.78;;;0.99;100.00
58385;BME280;44185;47.844;8.966;2023-02-13T02:59:56;97971.84;;;0.96;100.00
58385;BME280;44185;47.844;8.966;2023-02-13T03:02:22;97977.06;;;0.98;100.00
58385;BME280;44185;47.844;8.966;2023-02-13T03:04:52;97973.56;;;0.97;100.00
58385;BME280;44185;47.844;8.966;2023-02-13T03:07:18;97973.53;;;1.01;100.00
58385;BME280;44185;47.844;8.966;2023-02-13T03:09:47;97970.88;;;1.02;100.00
58385;BME280;44185;47.844;8.966;2023-02-13T03:12:16;97967.41;;;1.02;100.00
58385;BME280;44185;47.844;8.966;2023-02-13T03:14:44;97971.13;;;0.90;100.00
58385;BME280;44185;47.844;8.966;2023-02-13T03:17:10;97971.13;;;0.88;100.00
58385;BME280;44185;47.844;8.966;2023-02-13T03:19:43;97978.94;;;0.90;100.00
58385;BME280;44185;47.844;8.966;2023-02-13T03:22:24;97977.09;;;0.93;100.00
58385;BME280;44185;47.844;8.966;2023-02-13T03:24:59;97982.38;;;0.92;100.00
58385;BME280;44185;47.844;8.966;2023-02-13T03:27:34;97981.53;;;0.90;100.00
58385;BME280;44185;47.844;8.966;2023-02-13T03:30:12;97988.69;;;0.78;100.00
58385;BME280;44185;47.844;8.966;2023-02-13T03:32:44;97987.78;;;0.81;100.00
58385;BME280;44185;47.844;8.966;2023-02-13T03:35:20;97981.78;;;0.75;100.00
58385;BME280;44185;47.844;8.966;2023-02-13T03:37:53;97981.88;;;0.71;100.00
58385;BME280;44185;47.844;8.966;2023-02-13T03:40:26;97982.78;;;0.66;100.00
58385;BME280;44185;47.844;8.966;2023-02-13T03:42:57;97989.75;;;0.68;100.00
58385;BME280;44185;47.844;8.966;2023-02-13T03:45:29;97985.50;;;0.62;100.00
58385;BME280;44185;47.844;8.966;2023-02-13T03:47:57;97991.56;;;0.62;100.00
58385;BME280;44185;47.844;8.966;2023-02-13T03:50:26;98002.94;;;0.58;100.00
58385;BME280;44185;47.844;8.966;2023-02-13T03:52:57;98000.34;;;0.57;100.00
58385;BME280;44185;47.844;8.966;2023-02-13T03:55:28;97999.47;;;0.56;100.00
58385;BME280;44185;47.844;8.966;2023-02-13T03:57:59;98006.41;;;0.57;100.00
58385;BME280;44185;47.844;8.966;2023-02-13T04:00:33;98006.41;;;0.57;100.00
58385;BME280;44185;47.844;8.966;2023-02-13T04:03:07;98000.38;;;0.55;100.00
58385;BME280;44185;47.844;8.966;2023-02-13T04:05:39;98001.25;;;0.54;100.00
58385;BME280;44185;47.844;8.966;2023-02-13T04:08:07;98013.41;;;0.53;100.00
58385;BME280;44185;47.844;8.966;2023-02-13T04:10:36;98008.25;;;0.52;100.00
58385;BME280;44185;47.844;8.966;2023-02-13T04:13:11;98008.25;;;0.52;100.00
58385;BME280;44185;47.844;8.966;2023-02-13T04:15:40;98005.81;;;0.42;100.00
58385;BME280;44185;47.844;8.966;2023-02-13T04:18:12;98014.50;;;0.41;100.00
58385;BME280;44185;47.844;8.966;2023-02-13T04:20:39;98012.75;;;0.42;100.00
58385;BME280;44185;47.844;8.966;2023-02-13T04:23:06;98007.53;;;0.42;100.00
58385;BME280;44185;47.844;8.966;2023-02-13T04:25:33;98016.19;;;0.44;100.00
58385;BME280;44185;47.844;8.966;2023-02-13T04:27:59;98011.84;;;0.44;100.00
58385;BME280;44185;47.844;8.966;2023-02-13T04:30:25;98014.44;;;0.43;100.00
58385;BME280;44185;47.844;8.966;2023-02-13T04:32:50;98016.22;;;0.41;100.00
58385;BME280;44185;47.844;8.966;2023-02-13T04:35:16;98023.16;;;0.42;100.00
58385;BME280;44185;47.844;8.966;2023-02-13T04:37:41;98017.09;;;0.41;100.00
58385;BME280;44185;47.844;8.966;2023-02-13T04:40:08;98017.09;;;0.41;100.00
58385;BME280;44185;47.844;8.966;2023-02-13T04:42:35;98019.75;;;0.38;100.00
58385;BME280;44185;47.844;8.966;2023-02-13T04:45:00;98021.47;;;0.39;100.00
58385;BME280;44185;47.844;8.966;2023-02-13T04:47:26;98024.94;;;0.38;100.00
58385;BME280;44185;47.844;8.966;2023-02-13T04:49:52;98023.22;;;0.39;100.00
58385;BME280;44185;47.844;8.966;2023-02-13T04:52:18;98026.81;;;0.31;100.00
58385;BME280;44185;47.844;8.966;2023-02-13T04:54:43;98034.59;;;0.33;100.00
58385;BME280;44185;47.844;8.966;2023-02-13T04:57:08;98021.66;;;0.27;100.00
58385;BME280;44185;47.844;8.966;2023-02-13T04:59:35;98024.25;;;0.28;100.00
58385;BME280;44185;47.844;8.966;2023-02-13T05:02:01;98023.50;;;0.20;100.00
58385;BME280;44185;47.844;8.966;2023-02-13T05:04:26;98027.72;;;0.27;100.00
58385;BME280;44185;47.844;8.966;2023-02-13T05:06:51;98019.94;;;0.26;100.00
58385;BME280;44185;47.844;8.966;2023-02-13T05:09:17;98025.16;;;0.24;100.00
58385;BME280;44185;47.844;8.966;2023-02-13T05:11:42;98023.41;;;0.25;100.00
58385;BME280;44185;47.844;8.966;2023-02-13T05:14:09;98021.72;;;0.24;100.00
58385;BME280;44185;47.844;8.966;2023-02-13T05:16:37;98021.75;;;0.20;100.00
58385;BME280;44185;47.844;8.966;2023-02-13T05:19:02;98021.75;;;0.19;100.00
58385;BME280;44185;47.844;8.966;2023-02-13T05:21:28;98025.22;;;0.21;100.00
58385;BME280;44185;47.844;8.966;2023-02-13T05:23:53;98022.66;;;0.18;100.00
58385;BME280;44185;47.844;8.966;2023-02-13T05:26:19;98025.28;;;0.18;100.00
58385;BME280;44185;47.844;8.966;2023-02-13T05:28:44;98029.59;;;0.17;100.00
58385;BME280;44185;47.844;8.966;2023-02-13T05:31:09;98028.84;;;0.10;100.00
58385;BME280;44185;47.844;8.966;2023-02-13T05:33:36;98030.47;;;0.16;100.00
58385;BME280;44185;47.844;8.966;2023-02-13T05:36:02;98025.28;;;0.16;100.00
58385;BME280;44185;47.844;8.966;2023-02-13T05:38:28;98028.81;;;0.12;100.00
58385;BME280;44185;47.844;8.966;2023-02-13T05:40:53;98031.41;;;0.12;100.00
58385;BME280;44185;47.844;8.966;2023-02-13T05:43:19;98034.97;;;0.08;100.00
58385;BME280;44185;47.844;8.966;2023-02-13T05:45:44;98037.56;;;0.08;100.00
58385;BME280;44185;47.844;8.966;2023-02-13T05:48:10;98034.97;;;0.08;100.00
58385;BME280;44185;47.844;8.966;2023-02-13T05:50:37;98033.28;;;0.04;100.00
58385;BME280;44185;47.844;8.966;2023-02-13T05:53:02;98043.69;;;0.04;100.00
58385;BME280;44185;47.844;8.966;2023-02-13T05:55:28;98034.09;;;0.07;100.00
58385;BME280;44185;47.844;8.966;2023-02-13T05:57:55;98037.53;;;0.09;100.00
58385;BME280;44185;47.844;8.966;2023-02-13T06:00:20;98043.56;;;0.12;100.00
58385;BME280;44185;47.844;8.966;2023-02-13T06:02:46;98034.06;;;0.10;100.00
58385;BME280;44185;47.844;8.966;2023-02-13T06:05:11;98035.84;;;0.07;100.00
58385;BME280;44185;47.844;8.966;2023-02-13T06:07:38;98035.75;;;0.12;100.00
58385;BME280;44185;47.844;8.966;2023-02-13T06:10:04;98032.34;;;0.08;100.00
58385;BME280;44185;47.844;8.966;2023-02-13T06:12:30;98041.00;;;0.10;100.00
58385;BME280;44185;47.844;8.966;2023-02-13T06:14:55;98035.81;;;0.08;100.00
58385;BME280;44185;47.844;8.966;2023-02-13T06:17:21;98033.19;;;0.10;100.00
58385;BME280;44185;47.844;8.966;2023-02-13T06:19:46;98040.13;;;0.09;100.00
58385;BME280;44185;47.844;8.966;2023-02-13T06:22:12;98036.66;;;0.09;100.00
58385;BME280;44185;47.844;8.966;2023-02-13T06:24:38;98031.53;;;0.04;100.00
58385;BME280;44185;47.844;8.966;2023-02-13T06:27:04;98031.50;;;0.07;100.00
58385;BME280;44185;47.844;8.966;2023-02-13T06:29:29;98038.41;;;0.08;100.00
58385;BME280;44185;47.844;8.966;2023-02-13T06:31:55;98042.75;;;0.09;100.00
58385;BME280;44185;47.844;8.966;2023-02-13T06:34:20;98040.09;;;0.11;100.00
58385;BME280;44185;47.844;8.966;2023-02-13T06:36:46;98041.06;;;0.05;100.00
58385;BME280;44185;47.844;8.966;2023-02-13T06:39:11;98043.69;;;0.05;100.00
58385;BME280;44185;47.844;8.966;2023-02-13T06:41:38;98046.25;;;0.07;100.00
58385;BME280;44185;47.844;8.966;2023-02-13T06:44:04;98039.28;;;0.09;100.00
58385;BME280;44185;47.844;8.966;2023-02-13T06:46:29;98046.28;;;0.05;100.00
58385;BME280;44185;47.844;8.966;2023-02-13T06:48:54;98041.97;;;0.03;100.00
58385;BME280;44185;47.844;8.966;2023-02-13T06:51:20;98048.06;;;0.02;100.00
58385;BME280;44185;47.844;8.966;2023-02-13T06:53:45;98052.44;;;-0.01;100.00
58385;BME280;44185;47.844;8.966;2023-02-13T06:56:11;98055.91;;;-0.02;100.00
58385;BME280;44185;47.844;8.966;2023-02-13T06:58:37;98053.28;;;0.00;100.00
58385;BME280;44185;47.844;8.966;2023-02-13T07:01:03;98054.88;;;0.09;100.00
58385;BME280;44185;47.844;8.966;2023-02-13T07:03:29;98064.41;;;0.12;100.00
58385;BME280;44185;47.844;8.966;2023-02-13T07:05:54;98055.75;;;0.09;100.00
58385;BME280;44185;47.844;8.966;2023-02-13T07:08:19;98065.31;;;0.09;100.00
58385;BME280;44185;47.844;8.966;2023-02-13T07:10:45;98070.53;;;0.07;100.00
58385;BME280;44185;47.844;8.966;2023-02-13T07:13:10;98064.44;;;0.10;100.00
58385;BME280;44185;47.844;8.966;2023-02-13T07:15:37;98071.31;;;0.16;100.00
58385;BME280;44185;47.844;8.966;2023-02-13T07:18:04;98068.63;;;0.19;100.00
58385;BME280;44185;47.844;8.966;2023-02-13T07:20:29;98080.78;;;0.20;100.00
58385;BME280;44185;47.844;8.966;2023-02-13T07:22:56;98076.50;;;0.16;100.00
58385;BME280;44185;47.844;8.966;2023-02-13T07:25:22;98074.69;;;0.21;100.00
58385;BME280;44185;47.844;8.966;2023-02-13T07:27:47;98082.44;;;0.24;100.00
58385;BME280;44185;47.844;8.966;2023-02-13T07:30:13;98078.94;;;0.28;100.00
58385;BME280;44185;47.844;8.966;2023-02-13T07:32:40;98081.53;;;0.28;100.00
58385;BME280;44185;47.844;8.966;2023-02-13T07:35:05;98082.44;;;0.24;100.00
58385;BME280;44185;47.844;8.966;2023-02-13T07:37:31;98087.66;;;0.24;100.00
58385;BME280;44185;47.844;8.966;2023-02-13T07:39:56;98087.56;;;0.30;100.00
58385;BME280;44185;47.844;8.966;2023-02-13T07:42:22;98090.16;;;0.32;100.00
58385;BME280;44185;47.844;8.966;2023-02-13T07:44:47;98084.22;;;0.24;100.00
58385;BME280;44185;47.844;8.966;2023-02-13T07:47:13;98092.84;;;0.24;100.00
58385;BME280;44185;47.844;8.966;2023-02-13T07:49:40;98086.72;;;0.30;100.00
58385;BME280;44185;47.844;8.966;2023-02-13T07:52:06;98088.41;;;0.32;100.00
58385;BME280;44185;47.844;8.966;2023-02-13T07:54:32;98089.34;;;0.28;100.00
58385;BME280;44185;47.844;8.966;2023-02-13T07:56:58;98081.66;;;0.20;100.00
58385;BME280;44185;47.844;8.966;2023-02-13T07:59:23;98086.75;;;0.27;100.00
58385;BME280;44185;47.844;8.966;2023-02-13T08:01:49;98095.44;;;0.27;100.00
58385;BME280;44185;47.844;8.966;2023-02-13T08:04:14;98088.53;;;0.25;100.00
58385;BME280;44185;47.844;8.966;2023-02-13T08:06:41;98085.13;;;0.19;100.00
58385;BME280;44185;47.844;8.966;2023-02-13T08:09:07;98087.66;;;0.26;100.00
58385;BME280;44185;47.844;8.966;2023-02-13T08:11:41;98092.81;;;0.29;100.00
58385;BME280;44185;47.844;8.966;2023-02-13T08:14:07;98086.75;;;0.28;100.00
58385;BME280;44185;47.844;8.966;2023-02-13T08:16:33;98095.34;;;0.32;100.00
58385;BME280;44185;47.844;8.966;2023-02-13T08:18:58;98097.00;;;0.38;100.00
58385;BME280;44185;47.844;8.966;2023-02-13T08:21:23;98089.19;;;0.38;100.00
58385;BME280;44185;47.844;8.966;2023-02-13T08:23:50;98092.66;;;0.40;100.00
58385;BME280;44185;47.844;8.966;2023-02-13T08:26:16;98091.81;;;0.38;100.00
58385;BME280;44185;47.844;8.966;2023-02-13T08:28:41;98092.75;;;0.33;100.00
58385;BME280;44185;47.844;8.966;2023-02-13T08:31:09;98093.53;;;0.37;100.00
58385;BME280;44185;47.844;8.966;2023-02-13T08:33:35;98093.53;;;0.37;100.00
58385;BME280;44185;47.844;8.966;2023-02-13T08:36:01;98100.53;;;0.37;100.00
58385;BME280;44185;47.844;8.966;2023-02-13T08:38:27;98103.06;;;0.41;100.00
58385;BME280;44185;47.844;8.966;2023-02-13T08:40:56;98096.09;;;0.42;100.00
58385;BME280;44185;47.844;8.966;2023-02-13T08:43:22;98096.03;;;0.47;100.00
58385;BME280;44185;47.844;8.966;2023-02-13T08:45:47;98098.59;;;0.50;100.00
58385;BME280;44185;47.844;8.966;2023-02-13T08:48:13;98103.75;;;0.53;100.00
58385;BME280;44185;47.844;8.966;2023-02-13T08:50:38;98099.38;;;0.53;100.00
58385;BME280;44185;47.844;8.966;2023-02-13T08:53:04;98090.78;;;0.50;100.00
58385;BME280;44185;47.844;8.966;2023-02-13T08:55:30;98102.00;;;0.53;100.00
58385;BME280;44185;47.844;8.966;2023-02-13T08:57:59;98107.09;;;0.61;100.00
58385;BME280;44185;47.844;8.966;2023-02-13T09:00:25;98108.75;;;0.67;100.00
58385;BME280;44185;47.844;8.966;2023-02-13T09:02:50;98098.31;;;0.67;100.00
58385;BME280;44185;47.844;8.966;2023-02-13T09:05:15;98106.97;;;0.69;100.00
58385;BME280;44185;47.844;8.966;2023-02-13T09:07:41;98099.09;;;0.72;100.00
58385;BME280;44185;47.844;8.966;2023-02-13T09:10:06;98098.94;;;0.83;100.00
58385;BME280;44185;47.844;8.966;2023-02-13T09:12:32;98100.63;;;0.86;100.00
58385;BME280;44185;47.844;8.966;2023-02-13T09:14:59;98098.84;;;0.88;100.00
58385;BME280;44185;47.844;8.966;2023-02-13T09:17:24;98100.50;;;0.95;100.00
58385;BME280;44185;47.844;8.966;2023-02-13T09:19:50;98101.47;;;0.90;100.00
58385;BME280;44185;47.844;8.966;2023-02-13T09:22:15;98104.06;;;0.90;100.00
58385;BME280;44185;47.844;8.966;2023-02-13T09:24:40;98098.94;;;0.83;100.00
58385;BME280;44185;47.844;8.966;2023-02-13T09:27:06;98103.16;;;0.92;100.00
58385;BME280;44185;47.844;8.966;2023-02-13T09:29:31;98094.28;;;1.01;100.00
58385;BME280;44185;47.844;8.966;2023-02-13T09:31:59;98100.28;;;1.06;100.00
58385;BME280;44185;47.844;8.966;2023-02-13T09:34:25;98104.63;;;1.07;100.00
58385;BME280;44185;47.844;8.966;2023-02-13T09:36:50;98103.63;;;1.15;100.00
58385;BME280;44185;47.844;8.966;2023-02-13T09:39:16;98101.00;;;1.16;100.00
58385;BME280;44185;47.844;8.966;2023-02-13T09:41:43;98107.94;;;1.17;100.00
58385;BME280;44185;47.844;8.966;2023-02-13T09:44:14;98102.66;;;1.22;100.00
58385;BME280;44185;47.844;8.966;2023-02-13T09:46:41;98113.94;;;1.22;100.00
58385;BME280;44185;47.844;8.966;2023-02-13T09:49:12;98111.25;;;1.26;100.00
58385;BME280;44185;47.844;8.966;2023-02-13T09:51:40;98112.91;;;1.31;100.00
58385;BME280;44185;47.844;8.966;2023-02-13T09:54:10;98103.56;;;1.18;100.00
58385;BME280;44185;47.844;8.966;2023-02-13T09:56:40;98100.84;;;1.26;100.00
58385;BME280;44185;47.844;8.966;2023-02-13T09:59:17;98100.97;;;1.18;100.00
58385;BME280;44185;47.844;8.966;2023-02-13T10:01:48;98104.28;;;1.28;100.00
58385;BME280;44185;47.844;8.966;2023-02-13T10:04:26;98097.41;;;1.24;100.00
58385;BME280;44185;47.844;8.966;2023-02-13T10:07:00;98100.88;;;1.24;100.00
58385;BME280;44185;47.844;8.966;2023-02-13T10:09:30;98094.56;;;1.36;100.00
58385;BME280;44185;47.844;8.966;2023-02-13T10:12:12;98098.91;;;1.36;100.00
58385;BME280;44185;47.844;8.966;2023-02-13T10:14:50;98101.38;;;1.43;100.00
58385;BME280;44185;47.844;8.966;2023-02-13T10:17:22;98105.69;;;1.46;100.00
58385;BME280;44185;47.844;8.966;2023-02-13T10:19:54;98100.59;;;1.38;100.00
58385;BME280;44185;47.844;8.966;2023-02-13T10:22:24;98102.56;;;1.25;100.00
58385;BME280;44185;47.844;8.966;2023-02-13T10:24:55;98106.09;;;1.24;100.00
58385;BME280;44185;47.844;8.966;2023-02-13T10:27:26;98097.16;;;1.38;100.00
58385;BME280;44185;47.844;8.966;2023-02-13T10:29:55;98097.78;;;1.49;100.00
58385;BME280;44185;47.844;8.966;2023-02-13T10:32:26;98095.03;;;1.57;100.00
58385;BME280;44185;47.844;8.966;2023-02-13T10:34:57;98093.97;;;1.67;100.00
58385;BME280;44185;47.844;8.966;2023-02-13T10:37:23;98089.81;;;1.59;100.00
58385;BME280;44185;47.844;8.966;2023-02-13T10:39:50;98088.84;;;1.64;100.00
58385;BME280;44185;47.844;8.966;2023-02-13T10:42:21;98083.53;;;1.67;100.00
58385;BME280;44185;47.844;8.966;2023-02-13T10:44:53;98083.50;;;1.69;100.00
58385;BME280;44185;47.844;8.966;2023-02-13T10:47:34;98081.63;;;1.76;100.00
58385;BME280;44185;47.844;8.966;2023-02-13T10:50:12;98082.38;;;1.83;100.00
58385;BME280;44185;47.844;8.966;2023-02-13T10:52:46;98078.91;;;1.81;100.00
58385;BME280;44185;47.844;8.966;2023-02-13T10:55:28;98077.06;;;1.86;100.00
58385;BME280;44185;47.844;8.966;2023-02-13T10:58:05;98073.69;;;1.81;100.00
58385;BME280;44185;47.844;8.966;2023-02-13T11:00:34;98078.75;;;1.88;100.00
58385;BME280;44185;47.844;8.966;2023-02-13T11:03:01;98074.50;;;1.84;100.00
58385;BME280;44185;47.844;8.966;2023-02-13T11:05:32;98077.91;;;1.88;100.00
58385;BME280;44185;47.844;8.966;2023-02-13T11:07:58;98071.88;;;1.84;100.00
58385;BME280;44185;47.844;8.966;2023-02-13T11:10:25;98076.94;;;1.92;100.00
58385;BME280;44185;47.844;8.966;2023-02-13T11:12:51;98066.63;;;1.86;100.00
58385;BME280;44185;47.844;8.966;2023-02-13T11:15:23;98070.25;;;1.80;100.00
58385;BME280;44185;47.844;8.966;2023-02-13T11:17:49;98065.63;;;1.92;100.00
58385;BME280;44185;47.844;8.966;2023-02-13T11:20:26;98061.25;;;1.94;100.00
58385;BME280;44185;47.844;8.966;2023-02-13T11:22:54;98054.31;;;1.91;100.00
58385;BME280;44185;47.844;8.966;2023-02-13T11:25:22;98066.31;;;2.02;100.00
58385;BME280;44185;47.844;8.966;2023-02-13T11:27:50;98063.72;;;2.02;100.00
58385;BME280;44185;47.844;8.966;2023-02-13T11:30:30;98067.84;;;2.10;100.00
58385;BME280;44185;47.844;8.966;2023-02-13T11:32:58;98066.97;;;2.11;100.00
58385;BME280;44185;47.844;8.966;2023-02-13T11:35:29;98063.44;;;2.14;100.00
58385;BME280;44185;47.844;8.966;2023-02-13T11:38:20;98065.06;;;2.18;100.00
58385;BME280;44185;47.844;8.966;2023-02-13T11:40:49;98051.13;;;2.19;100.00
58385;BME280;44185;47.844;8.966;2023-02-13T11:43:18;98056.53;;;2.10;100.00
58385;BME280;44185;47.844;8.966;2023-02-13T11:45:44;98057.56;;;2.03;100.00
58385;BME280;44185;47.844;8.966;2023-02-13T11:48:19;98054.84;;;2.09;100.00
58385;BME280;44185;47.844;8.966;2023-02-13T11:50:50;98056.75;;;2.00;100.00
58385;BME280;44185;47.844;8.966;2023-02-13T11:53:20;98054.38;;;1.89;100.00
58385;BME280;44185;47.844;8.966;2023-02-13T11:56:01;98051.88;;;1.83;100.00
58385;BME280;44185;47.844;8.966;2023-02-13T11:58:27;98053.22;;;2.03;100.00
58385;BME280;44185;47.844;8.966;2023-02-13T12:01:08;98040.81;;;2.13;100.00
58385;BME280;44185;47.844;8.966;2023-02-13T12:03:33;98047.72;;;2.16;100.00
58385;BME280;44185;47.844;8.966;2023-02-13T12:06:01;98043.31;;;2.18;100.00
58385;BME280;44185;47.844;8.966;2023-02-13T12:08:30;98043.34;;;2.16;100.00
58385;BME280;44185;47.844;8.966;2023-02-13T12:10:56;98041.53;;;2.20;100.00
58385;BME280;44185;47.844;8.966;2023-02-13T12:13:27;98043.25;;;2.21;100.00
58385;BME280;44185;47.844;8.966;2023-02-13T12:15:58;98038.06;;;2.19;100.00
58385;BME280;44185;47.844;8.966;2023-02-13T12:18:28;98042.06;;;2.36;100.00
58385;BME280;44185;47.844;8.966;2023-02-13T12:21:01;98040.75;;;2.54;100.00
58385;BME280;44185;47.844;8.966;2023-02-13T12:23:36;98036.47;;;2.52;100.00
58385;BME280;44185;47.844;8.966;2023-02-13T12:26:17;98037.28;;;2.54;100.00
58385;BME280;44185;47.844;8.966;2023-02-13T12:28:59;98043.50;;;2.48;100.00
58385;BME280;44185;47.844;8.966;2023-02-13T12:31:58;98031.31;;;2.47;100.00
58385;BME280;44185;47.844;8.966;2023-02-13T12:34:43;98032.03;;;2.54;100.00
58385;BME280;44185;47.844;8.966;2023-02-13T12:37:21;98027.41;;;2.65;100.00
58385;BME280;44185;47.844;8.966;2023-02-13T12:40:04;98019.38;;;2.73;100.00
58385;BME280;44185;47.844;8.966;2023-02-13T12:42:40;98022.63;;;2.82;100.00
58385;BME280;44185;47.844;8.966;2023-02-13T12:45:16;98019.19;;;2.81;100.00
58385;BME280;44185;47.844;8.966;2023-02-13T12:48:01;98019.47;;;2.69;100.00
58385;BME280;44185;47.844;8.966;2023-02-13T12:50:45;98019.16;;;2.46;100.00
58385;BME280;44185;47.844;8.966;2023-02-13T12:53:27;98017.31;;;2.50;100.00
58385;BME280;44185;47.844;8.966;2023-02-13T12:56:14;98020.78;;;2.50;100.00
58385;BME280;44185;47.844;8.966;2023-02-13T12:59:00;98012.63;;;2.63;100.00
58385;BME280;44185;47.844;8.966;2023-02-13T13:04:35;98004.66;;;2.69;100.00
58385;BME280;44185;47.844;8.966;2023-02-13T13:07:24;98007.41;;;2.64;100.00
58385;BME280;44185;47.844;8.966;2023-02-13T13:09:59;98009.06;;;2.67;100.00
58385;BME280;44185;47.844;8.966;2023-02-13T13:12:39;98004.44;;;2.78;100.00
58385;BME280;44185;47.844;8.966;2023-02-13T13:15:12;98003.56;;;2.78;100.00
58385;BME280;44185;47.844;8.966;2023-02-13T13:17:53;98009.75;;;2.74;100.00
58385;BME280;44185;47.844;8.966;2023-02-13T13:23:17;98001.84;;;2.77;100.00